COMMANDO RACE 11KM

Organizator:
Fundacja Awizo Akademia Wspierania Inicjatyw Zaangażowania Obywatelskiego
Data:
2020-09-12
Miejsce:
Kraków
Dystans:
11 km
Zgłoszonych:
115
Wystartowało:
86
Nie ukończyło:
0
Ukończyło:
86
Na trasie:
0
Pełne wyniki :
Wyniki uproszczone:
Wyniki nieoficjalne !!!
Klasyfikacje w punktach pomiarowych: Start | Meta

Klasyfikacja wg czasów brutto.
MscZawodnikNumerKlubMiejscowośćKrajKategoriaMkatK/MCzas startuCzas
netto
11km
Czas
brutto
11km
Różn.Tempo
min/km
Tempo
km/h
       
1OPIAŁ Grzegorz 11076GorącyPotokTeamWIŚNIOWAElite Mężczyzn1M 100:00:0000:52:08.2500:52:08.25 4:4412,7
2KRZYSTYNIAK Robert 11049Gorący Potok TeamNOWY TARGElite Mężczyzn2M 200:00:0000:53:02.8500:53:02.85+00:00:544:4912,4
3SENDERSKI Przemysław 11089Dragon RunnersPRZYTKOWICEElite Mężczyzn3M 300:00:0000:56:46.5000:56:46.50+00:04:385:0911,6
4RACZEK Radosław 11080Gorący Potok TeamKRAKÓWElite Mężczyzn4M 400:00:0000:58:42.9500:58:42.95+00:06:345:2011,2
5MALEC Bartomiej 11064Warchlaki AdelajdyFALKÓWElite Mężczyzn5M 500:00:0000:59:28.3500:59:28.35+00:07:205:2411,1
6SKRZYSZOWSKI Janusz 11090SOCIOS SILESIAGORZYCZKIElite Mężczyzn6M 600:00:0001:01:49.4501:01:49.45+00:09:415:3710,7
7DERYŁO Mateusz 11021Koniu SquadKRAKÓWElite Mężczyzn7M 700:00:0001:01:50.0501:01:50.05+00:09:415:3710,7
8ILNICKI Darek 11037Dragon RunnersŚWIĄTNIKI GÓRNEElite Mężczyzn8M 800:00:0001:02:00.0001:02:00.00+00:09:515:3810,6
9BARAN Maciej 11007Dzicy OgrodnicySIEPTAWElite Mężczyzn9M 900:00:0001:02:11.0501:02:11.05+00:10:025:3910,6
10ZAJĄC Artur 11108Podhalańskie dziki teamZAKOPANEElite Mężczyzn10M 1000:00:0001:02:18.2001:02:18.20+00:10:095:3910,6
11ZIELIŃSKI Tomasz 11110Warchlaki AdelajdyKRAKÓWElite Mężczyzn11M 1100:00:0001:02:41.2001:02:41.20+00:10:325:4110,5
12KURASIŃSKI Konrad 11051Socios SilesiaBRENNAElite Mężczyzn12M 1200:00:0001:02:51.9001:02:51.90+00:10:435:4210,5
13TOMSKI Marcin 11100Warchlaki AdelajdySPYTKOWICEElite Mężczyzn13M 1300:00:0001:05:40.0501:05:40.05+00:13:315:5810,1
14LEBIEST Radosław 11056Żubry Race TeamWEGRZCE WIELKIEElite Mężczyzn14M 1400:00:0001:12:31.8001:12:31.80+00:20:236:359,1
15JASIŃSKA Alicja 11044Gorący Potok TeamŻYRAKÓWElite Kobiet1K 100:00:0001:12:46.9501:12:46.95+00:20:386:369,1
16WILCZYNSKI Kuba 11105GIEBUŁTÓWM-Open1M 1500:00:0001:13:03.3001:13:03.30+00:20:556:389,0
17CZARNIK Marek 11020Spartańska DziczZALASOWAM-Open2M 1600:00:0001:14:25.6501:14:25.65+00:22:176:458,9
18JAMRÓZ Andrzej 11040KRAKÓWM-Open3M 1700:00:0001:15:07.7001:15:07.70+00:22:596:498,8
19HUDASZEK Zbigniew 11036Dragon RunnersRUDNIKElite Mężczyzn15M 1800:00:0001:15:24.9001:15:24.90+00:23:166:518,8
20REJDYCH Tomasz 11083Koniu SquadKRAKÓWElite Mężczyzn16M 1900:00:0001:15:59.4501:15:59.45+00:23:516:548,7
21ŁUKA Paweł 11060OCR TEAM DĘBICADĘBICAElite Mężczyzn17M 2000:00:0001:16:19.4501:16:19.45+00:24:116:568,6
22BUDA Wojciech 11015BeFit24TeamKRAKÓWElite Mężczyzn18M 2100:00:0001:18:35.3001:18:35.30+00:26:277:088,4
23BERNACKI Łukasz 11010#DAMRADEBRZESKOM-Open4M 2200:00:0001:19:08.3501:19:08.35+00:27:007:118,3
24BARAN Dawid 11006Dzicy OgrodnicySIEPRAWM-Open5M 2300:00:0001:19:54.7001:19:54.70+00:27:467:158,3
25WOŹNIAK Joanna 11106Lemon TeamKRZESZOWICEElite Kobiet2K 200:00:0001:19:58.4501:19:58.45+00:27:507:168,3
26MIKRUT Mateusz 11069Total FreakCIESZYNElite Mężczyzn19M 2400:00:0001:20:03.9501:20:03.95+00:27:557:168,2
27ULMAN Jakub 11103Lemon TeamKRAKÓWElite Mężczyzn20M 2500:00:0001:21:04.8501:21:04.85+00:28:567:228,1
28BAJSAROWICZ Marta 11003Dragon RunnersGLIWICEElite Kobiet3K 300:00:0001:22:24.4501:22:24.45+00:30:167:298,0
29STAROWICZ Wojciech 11092#DAMRADEKRAKÓWM-Open6M 2600:00:0001:22:47.5501:22:47.55+00:30:397:318,0
30STĘPIEŃ Łukasz 11094Total FreakCIESZYNElite Mężczyzn21M 2700:00:0001:24:33.9001:24:33.90+00:32:257:417,8
31SCHMIDT Paweł 11087BeFit24TeamJERZMANOWICEElite Mężczyzn22M 2800:00:0001:24:59.6001:24:59.60+00:32:517:437,8
32PATYK Tomasz 11077BEFIT24TEAMKRAKÓWM-Open7M 2900:00:0001:25:33.7001:25:33.70+00:33:257:467,7
33DZIADOSZ Michał 11025OCR TEAM DĘBICAKORZENIÓWM-Open8M 3000:00:0001:26:48.4001:26:48.40+00:34:407:537,6
34ROZENBAJGER Robert 11084KRAKÓWM-Open9M 3100:00:0001:27:56.0001:27:56.00+00:35:477:597,5
35LAPCZYK Dominika 11055Total FreakDĘBOWIECK-Open1K 400:00:0001:28:10.0001:28:10.00+00:36:018:007,5
36RADWAŃSKI Łukasz 11081NOWY TARGM-Open10M 3200:00:0001:29:02.4001:29:02.40+00:36:548:057,4
37SZAFRAN Adrian 11096LIBIĄŻM-Open11M 3300:00:0001:29:44.5501:29:44.55+00:37:368:097,4
38DZIOBA Krystian 11027Spartańska DziczBOBROWNIKI WIELKIEM-Open12M 3400:00:0001:30:03.7501:30:03.75+00:37:558:117,3
39MÜLLER Rafael 11070BeFit24TeamKRAKÓWElite Mężczyzn23M 3500:00:0001:31:59.3001:31:59.30+00:39:518:217,2
40TROJAN Anna 11102Befit24teamKRAKÓWElite Kobiet4K 500:00:0001:33:10.9001:33:10.90+00:41:028:287,1
41NIDECKI Grzegorz 11072Spartańska DziczTARNÓWM-Open13M 3600:00:0001:33:31.0501:33:31.05+00:41:228:307,1
42MIECZNIK Maciej 11068KRAKÓWM-Open14M 3700:00:0001:33:59.1001:33:59.10+00:41:508:327,0
43CIĄGŁO Danuta 11019NOWA SARZYNAK-Open2K 600:00:0001:34:53.6001:34:53.60+00:42:458:377,0
44BOJDA Brygida 11013ŚWIRY STELAPIERŚCIECK-Open3K 700:00:0001:35:06.1001:35:06.10+00:42:578:386,9
45BRUDNY Agnieszka 11014Świry StelaOCHABYK-Open4K 800:00:0001:35:10.7501:35:10.75+00:43:028:396,9
46TROJAN Grzegorz 11101KRAKÓWElite Mężczyzn24M 3800:00:0001:35:24.6501:35:24.65+00:43:168:406,9
47KUHOT Eugene 11050UraganKRAKOWM-Open15M 3900:00:0001:36:29.4501:36:29.45+00:44:218:466,8
48RUDZIŃSKI Bartosz 11086OLKUSZM-Open16M 4000:00:0001:36:29.8501:36:29.85+00:44:218:466,8
49SULARZ Bogusław 11095TOMICEM-Open17M 4100:00:0001:37:08.8001:37:08.80+00:45:008:496,8
50CHRZĄSTEK Maciek 11018BeFit24TeamKRAKÓWElite Mężczyzn25M 4200:00:0001:38:46.8001:38:46.80+00:46:388:586,7
51MAKUCH Urszula 11063KRAKÓWK-Open5K 900:00:0001:39:56.6001:39:56.60+00:47:489:056,6
52PYRTEK Andrzej 11079RUDNIKM-Open18M 4300:00:0001:39:56.7001:39:56.70+00:47:489:056,6
53KOŁODZIEJ Dominik 11047KRAKÓWM-Open19M 4400:00:0001:40:21.5001:40:21.50+00:48:139:076,6
54ZEMLA Piotr 11109WADOWICEM-Open20M 4500:00:0001:40:22.2501:40:22.25+00:48:149:076,6
55LIS Krzysztof 11057WIELOPOLE SKRZYŃSKIEM-Open21M 4600:00:0001:42:47.1001:42:47.10+00:50:389:206,4
56DĘBIŃSKA - MAZUR Dagmara 11022Świry StelaSKOCZÓWK-Open6K 1000:00:0001:43:42.0501:43:42.05+00:51:339:256,4
57MAZUR Robert 11067Świry StelaORZESZEM-Open22M 4700:00:0001:43:45.0501:43:45.05+00:51:369:256,4
58KUŚ Paweł 11053Świry StelaSIMORADZM-Open23M 4800:00:0001:43:55.0501:43:55.05+00:51:469:266,4
59NOSAL Michał 11073Spartańska DziczZALASOWAM-Open24M 4900:00:0001:43:57.6001:43:57.60+00:51:499:276,3
60KRAWCZYK Dawid 11048ChZBKRYNICA-ZDRÓJM-Open25M 5000:00:0001:45:50.2501:45:50.25+00:53:429:376,2
61ŁYŚ Adam 11061KRAKOWM-Open26M 5100:00:0001:45:58.7001:45:58.70+00:53:509:386,2
62BEDNARZ Jakub 11009NDEWIELICZKAM-Open27M 5200:00:0001:46:27.6001:46:27.60+00:54:199:406,2
63BEDNARZ Jan 11008NDEKRAKÓWM-Open28M 5300:00:0001:46:28.1001:46:28.10+00:54:199:406,2
64JANAS Paweł 11041ZABIERZÓWM-Open29M 5400:00:0001:46:29.5501:46:29.55+00:54:219:406,2
65NOWAK Tadeusz 11074RunanywhereKATOWICEM-Open30M 5500:00:0001:47:22.0001:47:22.00+00:55:139:456,1
66MARCINKOWSKI Paweł 11065BORZĘCINM-Open31M 5600:00:0001:49:28.1001:49:28.10+00:57:199:576,0
67SZYDŁOWSKI Damian 11098DĘBNOM-Open32M 5700:00:0001:49:54.9501:49:54.95+00:57:469:596,0
68SZCZUREK Sabina 11097BeFit24TeamWRÓBLÓWKAK-Open7K 1100:00:0001:50:34.4501:50:34.45+00:58:2610:036,0
69GAJEWSKA Joanna 11031KRAKÓWK-Open8K 1200:00:0001:52:22.5501:52:22.55+01:00:1410:125,9
70SELECKA Teresa 11088BeFit24TeamKONARYK-Open9K 1300:00:0001:53:22.8501:53:22.85+01:01:1410:185,8
71GRZECHNIK Natalia 11035SZCZYGLICEK-Open10K 1400:00:0001:55:28.8501:55:28.85+01:03:2010:295,7
72REICHMANN Magdalena 11082KRAKÓWK-Open11K 1500:00:0001:55:29.5501:55:29.55+01:03:2110:295,7
73KURTYCZ Kinga 11052KRAKÓWK-Open12K 1600:00:0001:55:32.0501:55:32.05+01:03:2310:305,7
74POWROŹNIK Anna 11078KRAKÓWK-Open13K 1700:00:0001:55:32.6501:55:32.65+01:03:2410:305,7
75DRABCZYK Martyna 11023OŚWIĘCIMK-Open14K 1800:00:0001:55:41.3501:55:41.35+01:03:3310:315,7
76CHLEBOWSKI Grzegorz 11017OŚWIĘCIMM-Open33M 5800:00:0001:55:42.9001:55:42.90+01:03:3410:315,7
77JAMROZIK Adrian 11039KRAKÓWM-Open34M 5900:00:0001:57:15.8501:57:15.85+01:05:0710:395,6
78JABŁOŃSKA Sylwia 11038WARSZAWAK-Open15K 1900:00:0002:00:30.5502:00:30.55+01:08:2210:575,5
79WICHER Bartosz 11104gumowe zwierzakiCHRZANÓWM-Open35M 6000:00:0002:00:30.9502:00:30.95+01:08:2210:575,5
80MACIĄG Krzysztof 11062Gumowe zwierzakiWARSZAWAM-Open36M 6100:00:0002:00:31.3502:00:31.35+01:08:2310:575,5
81KWASNY Iwona 11054LUBZINAK-Open16K 2000:00:0002:01:17.3002:01:17.30+01:09:0911:015,4
82WRONA Anna 11107LUBZINAK-Open17K 2100:00:0002:01:33.0002:01:33.00+01:09:2411:035,4
83AUGUSTYNIAK Kamil 11002Warchlaki AdelajdyLIBIĄŻElite Mężczyzn26M 6200:00:0002:04:19.4502:04:19.45+01:12:1111:185,3
84DUKAT Sandra 11024Lemon TeamKRAKÓWElite Kobiet5K 2200:00:0002:04:57.8502:04:57.85+01:12:4911:215,3
85M. OLECH Izabela 11071Lemon TeamKRAKÓWElite Kobiet6K 2300:00:0002:20:11.4002:20:11.40+01:28:0312:444,7
86GRYMEK Dagmara 11034BeFit24 TeamKRAKÓWElite Kobiet7K 2400:00:0002:26:30.4502:26:30.45+01:34:2213:194,5
Znaleziono 86 wynik(ów)